createdAt,value
2019-05-18T00:00:19.195Z,99.10
2019-05-18T00:02:51.203Z,99.30
2019-05-18T00:05:22.913Z,99.40
2019-05-18T00:07:54.766Z,99.40
2019-05-18T00:10:26.308Z,99.50
2019-05-18T00:12:57.746Z,99.50
2019-05-18T00:15:29.742Z,99.50
2019-05-18T00:18:01.581Z,99.60
2019-05-18T00:20:33.297Z,99.60
2019-05-18T00:23:05.101Z,99.80
2019-05-18T00:25:36.864Z,99.20
2019-05-18T00:28:08.532Z,98.90
2019-05-18T00:30:40.212Z,98.40
2019-05-18T00:33:13.215Z,98.00
2019-05-18T00:35:44.737Z,97.70
2019-05-18T00:38:16.514Z,97.60
2019-05-18T00:40:48.237Z,97.80
2019-05-18T00:43:19.600Z,98.00
2019-05-18T00:45:51.241Z,98.10
2019-05-18T00:48:22.957Z,97.90
2019-05-18T00:50:55.099Z,97.80
2019-05-18T00:53:26.837Z,97.80
2019-05-18T00:55:58.591Z,97.80
2019-05-18T00:58:30.415Z,97.80
2019-05-18T01:01:02.179Z,97.90
2019-05-18T01:03:34.287Z,98.00
2019-05-18T01:06:06.232Z,98.30
2019-05-18T01:08:37.794Z,98.40
2019-05-18T01:11:10.488Z,98.50
2019-05-18T01:13:42.295Z,98.40
2019-05-18T01:16:13.724Z,98.40
2019-05-18T01:18:45.355Z,98.40
2019-05-18T01:21:17.165Z,98.40
2019-05-18T01:23:48.904Z,98.50
2019-05-18T01:26:20.314Z,98.60
2019-05-18T01:28:53.253Z,98.70
2019-05-18T01:31:25.214Z,98.90
2019-05-18T01:33:58.313Z,99.00
2019-05-18T01:36:30.020Z,99.20
2019-05-18T01:39:01.992Z,99.60
2019-05-18T01:41:34.037Z,99.80
2019-05-18T01:44:05.996Z,99.90
2019-05-18T01:46:37.628Z,99.90
2019-05-18T01:49:09.385Z,99.90
2019-05-18T01:51:41.164Z,99.90
2019-05-18T01:54:12.978Z,99.90
2019-05-18T01:56:44.476Z,99.90
2019-05-18T01:59:16.145Z,99.90
2019-05-18T02:01:47.899Z,99.90
2019-05-18T02:04:19.592Z,99.90
2019-05-18T02:06:51.322Z,99.90
2019-05-18T02:09:23.321Z,99.90
2019-05-18T02:11:54.808Z,99.90
2019-05-18T02:14:26.680Z,99.90
2019-05-18T02:16:58.365Z,99.90
2019-05-18T02:19:30.052Z,99.90
2019-05-18T02:22:01.525Z,99.90
2019-05-18T02:24:32.989Z,99.90
2019-05-18T02:27:06.884Z,99.90
2019-05-18T02:29:38.702Z,99.90
2019-05-18T02:32:10.417Z,99.90
2019-05-18T02:34:42.367Z,99.90
2019-05-18T02:37:13.790Z,99.90
2019-05-18T02:39:45.592Z,99.90
2019-05-18T02:42:17.549Z,99.90
2019-05-18T02:44:49.322Z,99.90
2019-05-18T02:47:20.645Z,99.90
2019-05-18T02:49:52.485Z,99.90
2019-05-18T02:52:24.339Z,99.90
2019-05-18T02:54:56.195Z,99.90
2019-05-18T02:57:28.303Z,99.90
2019-05-18T03:00:00.002Z,99.90
2019-05-18T03:02:31.991Z,99.90
2019-05-18T03:05:03.674Z,99.90
2019-05-18T03:07:35.731Z,99.90
2019-05-18T03:10:08.088Z,99.90
2019-05-18T03:12:39.882Z,99.90
2019-05-18T03:15:11.482Z,99.90
2019-05-18T03:17:43.213Z,99.90
2019-05-18T03:20:15.124Z,99.90
2019-05-18T03:22:47.059Z,99.90
2019-05-18T03:25:18.966Z,99.90
2019-05-18T03:27:50.817Z,99.90
2019-05-18T03:30:22.759Z,99.90
2019-05-18T03:32:54.970Z,99.90
2019-05-18T03:35:26.983Z,99.90
2019-05-18T03:37:58.993Z,99.90
2019-05-18T03:40:30.541Z,99.90
2019-05-18T03:43:02.204Z,99.90
2019-05-18T03:45:34.060Z,99.90
2019-05-18T03:48:07.122Z,99.90
2019-05-18T03:50:39.204Z,99.90
2019-05-18T03:53:10.702Z,99.90
2019-05-18T03:55:42.429Z,99.90
2019-05-18T03:58:14.066Z,99.90
2019-05-18T04:00:46.347Z,99.90
2019-05-18T04:03:18.199Z,99.90
2019-05-18T04:05:49.729Z,99.90
2019-05-18T04:08:21.436Z,99.90
2019-05-18T04:10:53.250Z,99.90
2019-05-18T04:13:25.807Z,99.90
2019-05-18T04:15:57.801Z,99.90
2019-05-18T04:18:29.805Z,99.90
2019-05-18T04:21:05.467Z,99.90
2019-05-18T04:23:37.090Z,99.90
2019-05-18T04:26:09.011Z,99.90
2019-05-18T04:28:40.903Z,99.90
2019-05-18T04:31:12.747Z,99.90
2019-05-18T04:33:44.491Z,99.90
2019-05-18T04:36:16.589Z,99.90
2019-05-18T04:38:48.441Z,99.90
2019-05-18T04:41:20.395Z,99.90
2019-05-18T04:43:51.961Z,99.90
2019-05-18T04:46:23.461Z,99.90
2019-05-18T04:48:55.358Z,99.90
2019-05-18T04:51:27.083Z,99.90
2019-05-18T04:53:58.902Z,99.90
2019-05-18T04:56:30.877Z,99.90
2019-05-18T04:59:02.621Z,99.90
2019-05-18T05:01:34.507Z,99.90
2019-05-18T05:04:18.155Z,99.90
2019-05-18T05:06:50.599Z,99.90
2019-05-18T05:09:22.350Z,99.90
2019-05-18T05:11:54.025Z,99.90
2019-05-18T05:14:25.662Z,99.90
2019-05-18T05:16:57.456Z,99.90
2019-05-18T05:19:29.253Z,99.90
2019-05-18T05:22:01.219Z,99.90
2019-05-18T05:24:33.089Z,99.90
2019-05-18T05:27:04.752Z,99.90
2019-05-18T05:29:36.734Z,99.90
2019-05-18T05:32:08.503Z,99.90
2019-05-18T05:34:40.462Z,99.90
2019-05-18T05:37:12.322Z,99.90
2019-05-18T05:39:44.378Z,99.90
2019-05-18T05:42:16.146Z,99.90
2019-05-18T05:44:47.915Z,99.90
2019-05-18T05:47:19.856Z,99.90
2019-05-18T05:49:51.807Z,99.90
2019-05-18T05:52:23.660Z,99.90
2019-05-18T05:54:55.556Z,99.90
2019-05-18T05:57:27.780Z,99.90
2019-05-18T05:59:59.542Z,99.90
2019-05-18T06:02:31.567Z,99.90
2019-05-18T06:05:03.551Z,99.90
2019-05-18T06:07:35.772Z,99.90
2019-05-18T06:10:07.632Z,99.90
2019-05-18T06:12:40.065Z,99.90
2019-05-18T06:15:12.139Z,99.90
2019-05-18T06:17:44.214Z,99.90
2019-05-18T06:20:16.311Z,99.90
2019-05-18T06:22:48.330Z,99.90
2019-05-18T06:25:19.835Z,99.90
2019-05-18T06:27:51.866Z,99.90
2019-05-18T06:30:23.665Z,99.90
2019-05-18T06:32:55.629Z,99.90
2019-05-18T06:35:27.717Z,99.90
2019-05-18T06:38:00.096Z,99.90
2019-05-18T06:40:32.065Z,99.90
2019-05-18T06:43:03.945Z,99.90
2019-05-18T06:45:35.901Z,99.90
2019-05-18T06:48:07.823Z,99.90
2019-05-18T06:50:40.065Z,99.90
2019-05-18T06:53:12.288Z,99.90
2019-05-18T06:55:44.492Z,99.90
2019-05-18T06:58:17.190Z,99.90
2019-05-18T07:00:48.970Z,99.90
2019-05-18T07:03:21.290Z,99.90
2019-05-18T07:05:53.537Z,99.90
2019-05-18T07:08:25.437Z,99.90
2019-05-18T07:10:57.257Z,99.90
2019-05-18T07:13:29.125Z,99.90
2019-05-18T07:16:01.135Z,99.90
2019-05-18T07:18:33.198Z,99.90
2019-05-18T07:21:05.057Z,99.90
2019-05-18T07:23:37.369Z,99.90
2019-05-18T07:26:09.269Z,99.90
2019-05-18T07:28:41.361Z,99.90
2019-05-18T07:31:13.505Z,99.90
2019-05-18T07:33:45.435Z,99.90
2019-05-18T07:36:17.494Z,99.90
2019-05-18T07:38:49.474Z,99.90
2019-05-18T07:41:21.355Z,99.90
2019-05-18T07:43:53.400Z,99.90
2019-05-18T07:46:25.347Z,99.90
2019-05-18T07:48:57.477Z,99.90
2019-05-18T07:51:37.105Z,99.90
2019-05-18T07:54:03.518Z,99.90
2019-05-18T07:56:35.774Z,99.90
2019-05-18T07:59:08.159Z,99.90
2019-05-18T08:01:40.097Z,99.90
2019-05-18T08:04:11.995Z,99.90
2019-05-18T08:06:43.973Z,99.90
2019-05-18T08:09:15.986Z,99.90
2019-05-18T08:11:47.807Z,99.90
2019-05-18T08:14:20.611Z,99.90
2019-05-18T08:16:52.963Z,99.90
2019-05-18T08:19:25.120Z,99.90
2019-05-18T08:21:57.225Z,99.90
2019-05-18T08:24:29.416Z,99.90
2019-05-18T08:27:02.278Z,99.90
2019-05-18T08:29:34.383Z,99.90
2019-05-18T08:32:06.205Z,99.90
2019-05-18T08:34:38.084Z,99.90
2019-05-18T08:37:10.035Z,99.90
2019-05-18T08:39:41.880Z,99.90
2019-05-18T08:42:13.787Z,99.90
2019-05-18T08:44:46.503Z,99.90
2019-05-18T08:47:18.521Z,99.90
2019-05-18T08:49:50.631Z,99.90
2019-05-18T08:52:22.754Z,99.90
2019-05-18T08:54:54.728Z,99.90
2019-05-18T08:57:26.591Z,99.90
2019-05-18T08:59:58.651Z,99.90
2019-05-18T09:02:30.715Z,99.90
2019-05-18T09:05:05.016Z,99.90
2019-05-18T09:07:36.611Z,99.90
2019-05-18T09:10:09.354Z,99.90
2019-05-18T09:12:41.709Z,99.90
2019-05-18T09:15:14.042Z,99.90
2019-05-18T09:17:46.367Z,99.90
2019-05-18T09:20:19.214Z,99.90
2019-05-18T09:22:51.544Z,99.90
2019-05-18T09:25:23.964Z,99.90
2019-05-18T09:27:56.151Z,99.90
2019-05-18T09:30:27.993Z,99.90
2019-05-18T09:33:00.078Z,99.90
2019-05-18T09:35:32.713Z,99.90
2019-05-18T09:38:05.007Z,99.90
2019-05-18T09:40:36.965Z,99.90
2019-05-18T09:43:09.009Z,99.90
2019-05-18T09:45:49.017Z,99.90
2019-05-18T09:48:20.988Z,98.90
2019-05-18T09:50:51.774Z,97.00
2019-05-18T09:53:23.857Z,94.90
2019-05-18T09:55:55.890Z,93.80
2019-05-18T09:58:28.108Z,93.30
2019-05-18T10:01:00.555Z,92.60
2019-05-18T10:03:32.739Z,92.40
2019-05-18T10:06:04.861Z,92.20
2019-05-18T10:08:37.399Z,91.20
2019-05-18T10:11:09.462Z,88.70
2019-05-18T10:13:42.064Z,87.60
2019-05-18T10:16:14.234Z,87.90
2019-05-18T10:18:46.711Z,87.50
2019-05-18T10:21:19.133Z,84.60
2019-05-18T10:23:51.039Z,85.10
2019-05-18T10:26:23.213Z,86.50
2019-05-18T10:28:55.212Z,86.40
2019-05-18T10:31:27.021Z,87.00
2019-05-18T10:33:58.902Z,86.90
2019-05-18T10:36:31.052Z,86.60
2019-05-18T10:39:03.206Z,85.70
2019-05-18T10:41:35.358Z,86.30
2019-05-18T10:44:07.538Z,86.90
2019-05-18T10:46:39.939Z,86.40
2019-05-18T10:49:12.107Z,86.70
2019-05-18T10:51:44.053Z,86.90
2019-05-18T10:54:15.863Z,86.80
2019-05-18T10:56:47.990Z,86.60
2019-05-18T10:59:20.385Z,87.00
2019-05-18T11:01:52.521Z,87.40
2019-05-18T11:04:24.989Z,87.60
2019-05-18T11:06:57.655Z,87.80
2019-05-18T11:09:29.527Z,86.30
2019-05-18T11:12:02.653Z,86.00
2019-05-18T11:14:35.173Z,86.10
2019-05-18T11:17:06.679Z,85.70
2019-05-18T11:19:38.864Z,84.90
2019-05-18T11:22:11.027Z,85.00
2019-05-18T11:24:43.556Z,84.10
2019-05-18T11:27:15.916Z,83.80
2019-05-18T11:29:48.326Z,83.50
2019-05-18T11:32:20.528Z,83.60
2019-05-18T11:34:52.728Z,83.70
2019-05-18T11:37:24.846Z,82.90
2019-05-18T11:39:57.381Z,82.30
2019-05-18T11:42:29.306Z,80.20
2019-05-18T11:45:01.229Z,80.60
2019-05-18T11:47:33.792Z,81.10
2019-05-18T11:50:06.187Z,81.60
2019-05-18T11:52:38.656Z,83.00
2019-05-18T11:55:11.413Z,82.40
2019-05-18T11:57:43.528Z,82.20
2019-05-18T12:00:18.261Z,81.60
2019-05-18T12:02:50.650Z,81.90
2019-05-18T12:05:22.643Z,82.10
2019-05-18T12:07:55.676Z,81.90
2019-05-18T12:10:28.066Z,82.00
2019-05-18T12:13:00.200Z,81.40
2019-05-18T12:15:32.427Z,80.00
2019-05-18T12:18:04.410Z,80.80
2019-05-18T12:20:36.832Z,80.50
2019-05-18T12:23:10.442Z,79.50
2019-05-18T12:25:42.264Z,78.60
2019-05-18T12:28:15.035Z,77.80
2019-05-18T12:30:47.584Z,77.30
2019-05-18T12:33:19.452Z,77.70
2019-05-18T12:35:51.529Z,78.30
2019-05-18T12:38:23.537Z,78.60
2019-05-18T12:40:55.789Z,78.70
2019-05-18T12:43:27.703Z,78.60
2019-05-18T12:45:59.498Z,78.80
2019-05-18T12:48:32.024Z,78.90
2019-05-18T12:51:04.074Z,78.60
2019-05-18T12:53:36.307Z,77.90
2019-05-18T12:56:08.618Z,76.90
2019-05-18T12:58:40.342Z,75.70
2019-05-18T13:01:12.461Z,75.50
2019-05-18T13:03:44.540Z,74.00
2019-05-18T13:06:16.899Z,73.50
2019-05-18T13:08:48.983Z,73.10
2019-05-18T13:11:20.965Z,71.90
2019-05-18T13:13:53.488Z,71.80
2019-05-18T13:16:25.652Z,72.00
2019-05-18T13:18:57.771Z,72.30
2019-05-18T13:21:29.940Z,72.10
2019-05-18T13:24:03.453Z,71.60
2019-05-18T13:26:35.321Z,70.70
2019-05-18T13:29:07.198Z,70.60
2019-05-18T13:31:41.353Z,70.00
2019-05-18T13:34:13.501Z,70.00
2019-05-18T13:36:45.679Z,69.90
2019-05-18T13:39:17.729Z,69.60
2019-05-18T13:41:49.712Z,70.20
2019-05-18T13:44:21.879Z,70.30
2019-05-18T13:46:53.769Z,70.60
2019-05-18T13:49:26.340Z,70.50
2019-05-18T13:51:58.670Z,70.20
2019-05-18T13:54:30.677Z,69.90
2019-05-18T13:57:02.544Z,70.50
2019-05-18T13:59:34.525Z,71.00
2019-05-18T14:02:06.345Z,71.70
2019-05-18T14:04:39.981Z,72.00
2019-05-18T14:07:12.198Z,71.50
2019-05-18T14:09:44.451Z,70.70
2019-05-18T14:12:16.691Z,70.60
2019-05-18T14:14:48.866Z,70.90
2019-05-18T14:17:20.804Z,70.90
2019-05-18T14:19:53.045Z,71.00
2019-05-18T14:22:24.871Z,71.00
2019-05-18T14:24:57.345Z,70.80
2019-05-18T14:27:29.168Z,70.50
2019-05-18T14:30:01.377Z,69.10
2019-05-18T14:32:33.508Z,68.30
2019-05-18T14:35:05.751Z,68.00
2019-05-18T14:37:37.630Z,68.30
2019-05-18T14:40:10.194Z,68.60
2019-05-18T14:42:42.575Z,68.90
2019-05-18T14:45:15.580Z,69.20
2019-05-18T14:47:47.978Z,69.30
2019-05-18T14:50:22.536Z,69.40
2019-05-18T14:52:54.758Z,69.80
2019-05-18T14:55:33.881Z,70.30
2019-05-18T14:58:00.517Z,70.10
2019-05-18T15:00:32.847Z,70.10
2019-05-18T15:03:05.488Z,69.40
2019-05-18T15:05:38.766Z,68.60
2019-05-18T15:08:11.088Z,67.60
2019-05-18T15:10:42.918Z,67.30
2019-05-18T15:13:15.185Z,66.40
2019-05-18T15:15:46.990Z,65.80
2019-05-18T15:18:20.061Z,65.10
2019-05-18T15:20:52.007Z,64.80
2019-05-18T15:23:24.080Z,64.50
2019-05-18T15:25:57.672Z,64.20
2019-05-18T15:28:29.573Z,63.10
2019-05-18T15:31:01.430Z,61.70
2019-05-18T15:33:33.774Z,61.10
2019-05-18T15:36:06.143Z,61.40
2019-05-18T15:38:38.213Z,62.00
2019-05-18T15:41:10.553Z,61.10
2019-05-18T15:43:42.716Z,60.20
2019-05-18T15:46:14.854Z,59.80
2019-05-18T15:48:48.976Z,61.80
2019-05-18T15:51:21.566Z,65.30
2019-05-18T15:53:53.595Z,68.30
2019-05-18T15:56:25.402Z,70.00
2019-05-18T15:58:57.346Z,71.50
2019-05-18T16:01:29.282Z,72.60
2019-05-18T16:04:01.149Z,73.10
2019-05-18T16:06:33.572Z,72.60
2019-05-18T16:09:07.099Z,72.00
2019-05-18T16:11:39.100Z,70.50
2019-05-18T16:14:11.503Z,70.40
2019-05-18T16:16:43.499Z,70.80
2019-05-18T16:19:15.382Z,71.20
2019-05-18T16:21:47.543Z,71.50
2019-05-18T16:24:19.612Z,71.50
2019-05-18T16:26:51.639Z,71.70
2019-05-18T16:29:23.612Z,72.10
2019-05-18T16:31:55.670Z,73.20
2019-05-18T16:34:28.020Z,72.80
2019-05-18T16:37:00.837Z,73.30
2019-05-18T16:39:33.291Z,73.60
2019-05-18T16:42:05.515Z,73.90
2019-05-18T16:44:38.045Z,74.60
2019-05-18T16:47:09.967Z,75.30
2019-05-18T16:49:41.941Z,76.00
2019-05-18T16:52:14.800Z,76.90
2019-05-18T16:54:46.278Z,77.70
2019-05-18T16:57:18.314Z,78.60
2019-05-18T16:59:49.880Z,79.30
2019-05-18T17:02:31.081Z,79.80
2019-05-18T17:04:55.513Z,80.10
2019-05-18T17:07:27.555Z,80.70
2019-05-18T17:09:59.633Z,81.40
2019-05-18T17:12:31.750Z,82.30
2019-05-18T17:15:03.825Z,82.90
2019-05-18T17:17:37.304Z,83.40
2019-05-18T17:20:10.453Z,84.30
2019-05-18T17:22:42.759Z,84.90
2019-05-18T17:25:15.223Z,85.80
2019-05-18T17:27:47.386Z,86.60
2019-05-18T17:30:20.039Z,87.30
2019-05-18T17:32:52.697Z,88.70
2019-05-18T17:35:24.964Z,88.40
2019-05-18T17:37:56.979Z,88.80
2019-05-18T17:40:29.253Z,89.40
2019-05-18T17:43:01.472Z,90.00
2019-05-18T17:45:33.779Z,90.30
2019-05-18T17:48:06.128Z,90.40
2019-05-18T17:50:38.408Z,90.70
2019-05-18T17:53:11.009Z,91.00
2019-05-18T17:55:43.019Z,91.20
2019-05-18T17:58:14.927Z,91.50
2019-05-18T18:00:47.403Z,91.80
2019-05-18T18:03:19.730Z,92.10
2019-05-18T18:05:51.679Z,92.30
2019-05-18T18:08:23.693Z,92.60
2019-05-18T18:10:55.624Z,92.90
2019-05-18T18:13:29.959Z,93.20
2019-05-18T18:16:02.005Z,93.60
2019-05-18T18:18:34.945Z,94.00
2019-05-18T18:21:07.261Z,94.40
2019-05-18T18:23:39.624Z,95.40
2019-05-18T18:26:11.802Z,96.70
2019-05-18T18:28:43.827Z,97.80
2019-05-18T18:31:16.331Z,99.40
2019-05-18T18:33:48.612Z,99.90
2019-05-18T18:36:20.592Z,99.90
2019-05-18T18:38:52.695Z,99.90
2019-05-18T18:41:24.768Z,99.90
2019-05-18T18:43:56.880Z,99.90
2019-05-18T18:46:28.681Z,99.90
2019-05-18T18:49:00.828Z,99.90
2019-05-18T18:51:32.931Z,99.90
2019-05-18T18:54:05.911Z,99.90
2019-05-18T18:56:38.425Z,99.90
2019-05-18T18:59:10.689Z,99.90
2019-05-18T19:01:42.821Z,99.90
2019-05-18T19:04:14.349Z,99.90
2019-05-18T19:06:46.721Z,99.90
2019-05-18T19:09:18.563Z,99.90
2019-05-18T19:11:50.616Z,99.90
2019-05-18T19:14:22.831Z,99.90
2019-05-18T19:16:54.941Z,99.90
2019-05-18T19:19:26.749Z,99.90
2019-05-18T19:21:58.916Z,99.90
2019-05-18T19:24:32.165Z,99.90
2019-05-18T19:27:04.307Z,99.90
2019-05-18T19:29:36.195Z,99.90
2019-05-18T19:32:08.337Z,99.90
2019-05-18T19:34:42.227Z,99.90
2019-05-18T19:37:13.952Z,99.90
2019-05-18T19:39:46.661Z,99.90
2019-05-18T19:42:18.530Z,99.90
2019-05-18T19:44:50.200Z,99.90
2019-05-18T19:47:22.975Z,99.90
2019-05-18T19:49:55.389Z,99.90
2019-05-18T19:52:27.991Z,99.90
2019-05-18T19:55:00.031Z,99.90
2019-05-18T19:57:32.343Z,99.90
2019-05-18T20:00:04.835Z,99.90
2019-05-18T20:02:37.174Z,99.90
2019-05-18T20:05:09.632Z,99.90
2019-05-18T20:07:41.771Z,99.90
2019-05-18T20:10:13.964Z,99.90
2019-05-18T20:12:46.265Z,99.90
2019-05-18T20:15:18.948Z,99.90
2019-05-18T20:17:51.134Z,99.90
2019-05-18T20:20:23.323Z,99.90
2019-05-18T20:22:55.229Z,99.90
2019-05-18T20:25:27.747Z,99.90
2019-05-18T20:27:59.996Z,99.90
2019-05-18T20:30:32.204Z,99.90
2019-05-18T20:33:05.878Z,99.90
2019-05-18T20:35:37.216Z,99.90
2019-05-18T20:38:09.191Z,99.90
2019-05-18T20:40:41.317Z,99.90
2019-05-18T20:43:13.379Z,99.90
2019-05-18T20:45:45.402Z,99.90
2019-05-18T20:48:17.167Z,99.90
2019-05-18T20:50:48.751Z,99.90
2019-05-18T20:53:20.824Z,99.90
2019-05-18T20:55:52.727Z,99.90
2019-05-18T20:58:38.744Z,99.90
2019-05-18T21:00:58.351Z,99.90
2019-05-18T21:03:30.279Z,99.90
2019-05-18T21:06:02.239Z,99.90
2019-05-18T21:08:34.197Z,99.90
2019-05-18T21:11:06.181Z,99.90
2019-05-18T21:13:38.438Z,99.90
2019-05-18T21:16:10.311Z,99.90
2019-05-18T21:18:42.507Z,99.90
2019-05-18T21:21:14.442Z,99.90
2019-05-18T21:23:46.743Z,99.90
2019-05-18T21:26:18.479Z,99.90
2019-05-18T21:28:56.372Z,99.90
2019-05-18T21:31:24.042Z,99.90
2019-05-18T21:33:55.547Z,99.90
2019-05-18T21:36:27.635Z,99.90
2019-05-18T21:38:59.422Z,99.90
2019-05-18T21:41:31.424Z,99.90
2019-05-18T21:44:03.422Z,99.90
2019-05-18T21:46:35.365Z,99.90
2019-05-18T21:49:07.229Z,99.90
2019-05-18T21:51:39.350Z,99.90
2019-05-18T21:54:12.289Z,99.90
2019-05-18T21:56:44.120Z,99.90
2019-05-18T21:59:15.871Z,99.90
2019-05-18T22:01:47.845Z,99.90
2019-05-18T22:04:19.912Z,99.90
2019-05-18T22:06:51.894Z,99.90
2019-05-18T22:09:24.025Z,99.90
2019-05-18T22:11:56.315Z,99.90
2019-05-18T22:14:27.992Z,99.90
2019-05-18T22:17:00.089Z,99.90
2019-05-18T22:19:32.055Z,99.90
2019-05-18T22:22:04.017Z,99.90
2019-05-18T22:24:35.852Z,99.90
2019-05-18T22:27:07.762Z,99.90
2019-05-18T22:29:39.625Z,99.90
2019-05-18T22:32:11.305Z,99.90
2019-05-18T22:34:43.622Z,99.90
2019-05-18T22:37:15.362Z,99.90
2019-05-18T22:39:47.538Z,99.90
2019-05-18T22:42:19.613Z,99.90
2019-05-18T22:44:51.432Z,99.90
2019-05-18T22:47:23.369Z,99.90
2019-05-18T22:49:55.066Z,99.90
2019-05-18T22:52:26.890Z,99.90
2019-05-18T22:54:58.389Z,99.90
2019-05-18T22:57:30.234Z,99.90
2019-05-18T23:00:02.305Z,99.90
2019-05-18T23:02:34.096Z,99.90
2019-05-18T23:05:06.165Z,99.90
2019-05-18T23:07:38.253Z,99.90
2019-05-18T23:10:10.193Z,99.90
2019-05-18T23:12:43.351Z,99.90
2019-05-18T23:15:15.019Z,99.90
2019-05-18T23:17:46.749Z,99.90
2019-05-18T23:20:18.974Z,99.90
2019-05-18T23:22:50.998Z,99.90
2019-05-18T23:25:22.911Z,99.90
2019-05-18T23:27:54.690Z,99.90
2019-05-18T23:30:26.619Z,99.90
2019-05-18T23:32:58.461Z,99.90
2019-05-18T23:35:30.127Z,99.90
2019-05-18T23:38:01.594Z,99.90
2019-05-18T23:40:33.425Z,99.90
2019-05-18T23:43:05.638Z,99.90
2019-05-18T23:45:37.782Z,99.90
2019-05-18T23:48:09.752Z,99.90
2019-05-18T23:50:41.681Z,99.90
2019-05-18T23:53:13.582Z,99.90
2019-05-18T23:55:45.354Z,99.90
2019-05-18T23:58:15.592Z,99.90
